Time;durP1;ratioP1;P1;durP2;ratioP2;P2;SDS_P1;SDS_P2;PMS_P1;PMS_P2;Temp;Humidity;BMP_temperature;BMP_pressure;BME280_temperature;BME280_humidity;BME280_pressure;Samples;Min_cycle;Max_cycle;Signal;HPM_P1;HPM_P2
2022/10/12 00:01:04;;;;;;;0.45;0.45;;;15.10;94.00;;;;;;5035918;28;20042;-81
2022/10/12 00:03:39;;;;;;;1.48;1.38;;;15.10;94.30;;;;;;5037317;28;20068;-80
2022/10/12 00:09:42;;;;;;;0.45;0.40;;;15.00;94.30;;;;;;5037581;28;20095;-79
2022/10/12 00:12:17;;;;;;;0.15;0.15;;;15.10;93.20;;;;;;5037147;28;20021;-80
2022/10/12 00:18:05;;;;;;;0.30;0.30;;;15.20;92.90;;;;;;5032954;28;20068;-80
2022/10/12 00:20:41;;;;;;;0.47;0.45;;;15.30;93.40;;;;;;5045865;28;20022;-81
2022/10/12 00:23:16;;;;;;;0.32;0.32;;;15.30;93.40;;;;;;5019659;28;20361;-81
2022/10/12 00:29:12;;;;;;;0.20;0.20;;;15.20;93.80;;;;;;5036875;28;20286;-80
2022/10/12 00:31:47;;;;;;;0.52;0.43;;;15.20;93.40;;;;;;5035971;28;20021;-81
2022/10/12 00:34:23;;;;;;;1.25;1.00;;;15.20;93.50;;;;;;5019259;28;20374;-81
2022/10/12 00:36:49;;;;;;;;;;;15.30;93.70;;;;;;5019776;28;20118;-81
2022/10/12 00:39:24;;;;;;;0.50;0.50;;;15.30;93.10;;;;;;5019292;28;19971;-81
2022/10/12 00:41:59;;;;;;;0.60;0.60;;;15.40;92.60;;;;;;5035806;28;20402;-81
2022/10/12 00:48:07;;;;;;;0.30;0.13;;;15.60;92.00;;;;;;5036758;28;20313;-81
2022/10/12 00:50:42;;;;;;;0.20;0.20;;;15.60;92.70;;;;;;5017753;28;20345;-81
2022/10/12 00:53:23;;;;;;;0.50;0.25;;;15.60;92.60;;;;;;5035825;28;20059;-81
2022/10/12 00:59:36;;;;;;;0.30;0.20;;;15.60;92.00;;;;;;5036805;28;20056;-80
2022/10/12 01:02:52;;;;;;;0.20;0.20;;;15.60;92.50;;;;;;5019768;28;20077;-80
2022/10/12 01:09:11;;;;;;;0.15;0.15;;;15.50;93.40;;;;;;5016990;28;20029;-80
2022/10/12 01:11:46;;;;;;;2.40;0.88;;;15.50;93.60;;;;;;4999272;28;20029;-81
2022/10/12 01:14:22;;;;;;;0.45;0.45;;;15.40;93.90;;;;;;5016604;28;20026;-81
2022/10/12 01:17:30;;;;;;;0.50;0.30;;;15.40;92.80;;;;;;5031800;28;20081;-81
2022/10/12 01:20:23;;;;;;;0.40;0.40;;;15.40;93.40;;;;;;4994900;28;20088;-81
2022/10/12 01:23:17;;;;;;;0.77;0.40;;;15.40;92.80;;;;;;4978722;28;20343;-80
2022/10/12 01:29:46;;;;;;;0.00;0.00;;;15.40;93.10;;;;;;5016857;28;20088;-79
2022/10/12 01:33:12;;;;;;;0.40;0.40;;;15.30;92.90;;;;;;5016323;28;20025;-80
2022/10/12 01:39:38;;;;;;;1.38;1.27;;;15.20;93.60;;;;;;4995416;28;20081;-80
2022/10/12 01:42:38;;;;;;;0.40;0.40;;;15.00;94.10;;;;;;4983719;28;20070;-80
2022/10/12 01:48:26;;;;;;;0.40;0.40;;;14.80;94.20;;;;;;4995297;28;20139;-81
2022/10/12 01:51:02;;;;;;;1.55;1.23;;;14.80;94.20;;;;;;4961629;28;20034;-80
2022/10/12 01:53:37;;;;;;;2.10;1.15;;;14.90;94.10;;;;;;4959331;28;20097;-81
2022/10/12 02:00:02;;;;;;;0.57;0.57;;;15.10;93.70;;;;;;4995092;28;20068;-81
2022/10/12 02:03:20;;;;;;;0.40;0.40;;;15.20;93.20;;;;;;5014206;28;20038;-81
2022/10/12 02:09:34;;;;;;;0.38;0.32;;;15.30;93.10;;;;;;5018040;28;19932;-81
2022/10/12 02:12:30;;;;;;;0.35;0.25;;;15.30;92.80;;;;;;4962365;28;20125;-81
2022/10/12 02:18:28;;;;;;;3.97;0.30;;;15.40;92.50;;;;;;4973810;28;20050;-80
2022/10/12 02:21:03;;;;;;;0.60;0.45;;;15.40;92.60;;;;;;4978149;28;20058;-81
2022/10/12 02:23:38;;;;;;;0.63;0.47;;;15.40;93.00;;;;;;4974797;28;20380;-80
2022/10/12 02:29:40;;;;;;;0.13;0.13;;;15.20;93.10;;;;;;4974397;28;20026;-80
2022/10/12 02:33:00;;;;;;;0.30;0.30;;;15.20;93.40;;;;;;4955484;28;20030;-80
2022/10/12 02:39:27;;;;;;;0.60;0.50;;;15.10;94.10;;;;;;4978481;28;20130;-80
2022/10/12 02:42:13;;;;;;;0.95;0.30;;;15.00;94.10;;;;;;4978391;28;20038;-81
2022/10/12 02:44:47;;;;;;;1.17;0.30;;;14.90;94.60;;;;;;4960212;28;20050;-81
2022/10/12 02:47:15;;;;;;;0.45;0.40;;;14.70;95.00;;;;;;5017949;28;20022;-80
2022/10/12 02:49:52;;;;;;;0.17;0.17;;;14.50;95.60;;;;;;5019485;28;20030;-81
2022/10/12 02:52:29;;;;;;;0.70;0.60;;;14.50;95.70;;;;;;5038655;28;20013;-80
2022/10/12 02:58:25;;;;;;;0.35;0.28;;;14.40;96.00;;;;;;5038984;28;20432;-81
2022/10/12 03:01:01;;;;;;;0.73;0.60;;;14.40;95.80;;;;;;5032834;28;20046;-81
2022/10/12 03:03:35;;;;;;;0.40;0.20;;;14.40;95.60;;;;;;5018833;28;20033;-80
2022/10/12 03:06:02;;;;;;;0.13;0.13;;;14.50;95.30;;;;;;5018703;28;20026;-80
2022/10/12 03:09:14;;;;;;;0.10;0.10;;;14.50;95.30;;;;;;5001223;28;20026;-81
2022/10/12 03:11:49;;;;;;;1.70;1.02;;;14.60;94.90;;;;;;5018419;28;20113;-80
2022/10/12 03:14:26;;;;;;;0.68;0.68;;;14.80;94.40;;;;;;5001066;28;20498;-81
2022/10/12 03:16:52;;;;;;;0.20;0.20;;;15.00;93.70;;;;;;5016513;28;20052;-79
2022/10/12 03:19:30;;;;;;;0.50;0.35;;;15.10;93.10;;;;;;5010437;28;20030;-81
2022/10/12 03:22:05;;;;;;;0.22;0.22;;;15.20;93.00;;;;;;5017316;28;20030;-80
2022/10/12 03:24:40;;;;;;;0.33;0.30;;;15.30;92.70;;;;;;5017161;28;20120;-81
2022/10/12 03:27:05;;;;;;;0.22;0.22;;;15.30;92.40;;;;;;5033785;28;20025;-81
2022/10/12 03:29:49;;;;;;;0.73;0.50;;;15.40;92.10;;;;;;5017161;28;20022;-81
2022/10/12 03:32:25;;;;;;;0.60;0.50;;;15.50;91.90;;;;;;5017048;28;20026;-81
2022/10/12 03:34:59;;;;;;;0.73;0.55;;;15.50;91.70;;;;;;5018057;28;20018;-81
2022/10/12 03:41:02;;;;;;;0.47;0.40;;;15.50;91.50;;;;;;5018300;28;20037;-80
2022/10/12 03:43:37;;;;;;;0.25;0.25;;;15.50;91.60;;;;;;5016912;28;20034;-81
2022/10/12 03:46:13;;;;;;;3.20;0.63;;;15.40;91.50;;;;;;5017943;28;20023;-81
2022/10/12 03:48:48;;;;;;;0.05;0.05;;;15.50;91.40;;;;;;5000448;28;20053;-81
2022/10/12 03:51:23;;;;;;;0.27;0.20;;;15.40;91.80;;;;;;5016843;28;20018;-81
2022/10/12 03:53:58;;;;;;;0.20;0.20;;;15.30;92.00;;;;;;5017029;28;20026;-81
2022/10/12 03:56:23;;;;;;;0.52;0.40;;;15.30;91.80;;;;;;5016642;28;20057;-81
2022/10/12 03:59:33;;;;;;;0.20;0.20;;;15.30;92.20;;;;;;5016794;28;20065;-81
2022/10/12 04:02:58;;;;;;;0.50;0.30;;;15.20;92.30;;;;;;5018868;28;20046;-81
2022/10/12 04:09:59;;;;;;;0.13;0.10;;;15.40;91.20;;;;;;5017835;28;20041;-81
2022/10/12 04:13:24;;;;;;;0.20;0.10;;;15.40;91.60;;;;;;5017479;28;20121;-81
2022/10/12 04:16:53;;;;;;;0.25;0.20;;;15.50;91.10;;;;;;5017354;28;20033;-81
2022/10/12 04:20:19;;;;;;;0.10;0.10;;;15.50;91.40;;;;;;5016332;28;20448;-82
2022/10/12 04:23:44;;;;;;;0.30;0.25;;;15.40;91.70;;;;;;5017155;28;20041;-80
2022/10/12 04:26:10;;;;;;;0.20;0.20;;;15.40;91.60;;;;;;5016349;28;20034;-81
2022/10/12 04:28:48;;;;;;;0.20;0.20;;;15.30;92.00;;;;;;4999521;28;20034;-80
2022/10/12 04:34:36;;;;;;;0.47;0.32;;;15.00;93.10;;;;;;5017486;28;20033;-81
2022/10/12 04:37:02;;;;;;;0.95;0.93;;;14.80;93.60;;;;;;4999365;28;20355;-80
2022/10/12 04:39:37;;;;;;;0.73;0.52;;;14.70;94.00;;;;;;5015943;28;20037;-81
2022/10/12 04:42:11;;;;;;;0.13;0.13;;;14.50;94.70;;;;;;5016901;28;20421;-81
2022/10/12 04:44:46;;;;;;;0.70;0.70;;;14.40;95.20;;;;;;4999446;28;20041;-81
2022/10/12 04:47:12;;;;;;;0.88;0.60;;;14.40;95.50;;;;;;5016866;28;20473;-80
2022/10/12 04:50:21;;;;;;;0.88;0.70;;;14.30;95.60;;;;;;4999516;28;20022;-79
2022/10/12 04:52:56;;;;;;;0.50;0.40;;;14.20;95.90;;;;;;5016820;28;20136;-80
2022/10/12 04:55:31;;;;;;;0.90;0.57;;;14.20;96.30;;;;;;4999333;28;20034;-81
2022/10/12 04:57:56;;;;;;;0.77;0.73;;;14.10;96.50;;;;;;5016777;28;20026;-80
2022/10/12 05:07:31;;;;;;;0.30;0.30;;;13.70;97.90;;;;;;5017145;28;20037;-81
2022/10/12 05:13:19;;;;;;;0.60;0.32;;;13.30;98.00;;;;;;5016873;28;20121;-81
2022/10/12 05:15:54;;;;;;;0.77;0.57;;;13.30;98.00;;;;;;5015388;28;20054;-80
2022/10/12 05:18:29;;;;;;;0.63;0.52;;;13.20;98.00;;;;;;4999276;28;20038;-81
2022/10/12 05:21:04;;;;;;;1.03;0.23;;;13.20;98.00;;;;;;5015619;28;20080;-81
2022/10/12 05:23:39;;;;;;;0.50;0.43;;;13.20;98.00;;;;;;4999174;28;20022;-80
2022/10/12 05:26:05;;;;;;;0.40;0.40;;;13.10;98.00;;;;;;4999164;28;20033;-81
2022/10/12 05:28:39;;;;;;;0.38;0.32;;;13.10;98.00;;;;;;4999078;28;20022;-80
2022/10/12 05:31:14;;;;;;;1.60;0.93;;;13.10;98.00;;;;;;5031706;28;20362;-81
2022/10/12 05:33:49;;;;;;;0.10;0.10;;;13.10;98.00;;;;;;4999057;28;20425;-81
2022/10/12 05:36:15;;;;;;;0.30;0.30;;;13.10;98.00;;;;;;5016542;28;20359;-81
2022/10/12 05:39:24;;;;;;;0.13;0.13;;;13.10;98.00;;;;;;5015485;28;20300;-82
2022/10/12 05:41:59;;;;;;;0.38;0.38;;;13.10;98.00;;;;;;5019164;28;20030;-82
2022/10/12 05:44:34;;;;;;;0.30;0.30;;;13.10;98.00;;;;;;5019053;28;20064;-81
2022/10/12 05:47:00;;;;;;;0.15;0.15;;;13.10;98.00;;;;;;5002818;28;20029;-81
2022/10/12 05:49:44;;;;;;;1.27;1.13;;;13.10;98.00;;;;;;5020208;28;20021;-81
2022/10/12 05:52:19;;;;;;;0.47;0.45;;;13.10;98.00;;;;;;5035441;28;20330;-80
2022/10/12 05:54:54;;;;;;;1.90;1.25;;;13.20;98.00;;;;;;5019967;28;20026;-81
2022/10/12 05:57:19;;;;;;;0.25;0.25;;;13.20;98.00;;;;;;5020147;28;20448;-81
2022/10/12 06:00:07;;;;;;;0.32;0.32;;;13.30;98.00;;;;;;5019085;28;20055;-80
2022/10/12 06:02:42;;;;;;;0.20;0.17;;;13.40;98.00;;;;;;5002420;28;20117;-81
2022/10/12 06:05:17;;;;;;;0.45;0.35;;;13.50;98.00;;;;;;5055186;28;20037;-81
2022/10/12 06:07:43;;;;;;;0.50;0.45;;;13.50;98.00;;;;;;5055262;28;20025;-80
2022/10/12 06:13:31;;;;;;;0.00;0.00;;;13.70;98.00;;;;;;5039791;28;20032;-81
2022/10/12 06:19:28;;;;;;;0.63;0.40;;;14.00;98.00;;;;;;5031390;28;20109;-80
2022/10/12 06:22:03;;;;;;;0.27;0.27;;;14.20;98.00;;;;;;5039440;28;20058;-81
2022/10/12 06:24:38;;;;;;;1.08;0.73;;;14.30;98.00;;;;;;5021540;28;20272;-80
2022/10/12 06:27:04;;;;;;;0.45;0.43;;;14.30;98.00;;;;;;5038196;28;20023;-81
2022/10/12 06:29:48;;;;;;;1.15;0.88;;;14.40;98.00;;;;;;5038150;28;20125;-81
2022/10/12 06:32:22;;;;;;;1.50;1.40;;;14.60;98.00;;;;;;5038094;28;20026;-81
2022/10/12 06:34:57;;;;;;;0.35;0.35;;;14.80;97.80;;;;;;5021566;28;20064;-81
2022/10/12 06:37:23;;;;;;;0.77;0.77;;;14.90;96.70;;;;;;5054769;28;20104;-80
2022/10/12 06:40:08;;;;;;;5.95;1.55;;;15.00;95.40;;;;;;5021467;28;20124;-81
2022/10/12 06:42:43;;;;;;;0.57;0.43;;;15.10;94.50;;;;;;5021300;28;20025;-81
2022/10/12 06:45:19;;;;;;;0.28;0.22;;;15.20;94.40;;;;;;5021333;28;20306;-81
2022/10/12 06:47:44;;;;;;;0.55;0.55;;;15.30;94.40;;;;;;5038928;28;20080;-80
2022/10/12 06:50:25;;;;;;;0.73;0.73;;;15.40;94.80;;;;;;5021272;28;20021;-81
2022/10/12 06:53:01;;;;;;;1.83;0.50;;;15.50;94.50;;;;;;5054448;28;20365;-81
2022/10/12 06:59:07;;;;;;;1.30;1.20;;;15.70;94.50;;;;;;5038810;28;20239;-80
2022/10/12 07:01:42;;;;;;;0.85;0.65;;;15.70;93.00;;;;;;5021157;28;20026;-80
2022/10/12 07:05:11;;;;;;;0.30;0.30;;;15.70;93.30;;;;;;5036967;28;20053;-81
2022/10/12 07:07:37;;;;;;;0.25;0.22;;;15.80;94.30;;;;;;5038734;28;20266;-81
2022/10/12 07:10:12;;;;;;;2.90;0.55;;;15.90;93.30;;;;;;5037305;28;20040;-81
2022/10/12 07:12:50;;;;;;;0.57;0.50;;;15.90;94.40;;;;;;5054130;28;20048;-80
2022/10/12 07:15:25;;;;;;;1.85;1.42;;;16.00;96.00;;;;;;5053776;28;20460;-80
2022/10/12 07:17:51;;;;;;;0.30;0.30;;;16.00;93.90;;;;;;5017973;28;20041;-81
2022/10/12 07:20:35;;;;;;;0.80;0.65;;;16.00;93.90;;;;;;5028532;28;20076;-80
2022/10/12 07:23:10;;;;;;;0.80;0.40;;;16.10;93.40;;;;;;5017365;28;20064;-81
2022/10/12 07:25:49;;;;;;;0.90;0.90;;;16.20;94.10;;;;;;5035337;28;20425;-81
2022/10/12 07:28:16;;;;;;;0.40;0.32;;;16.30;94.40;;;;;;5020446;28;20022;-81
2022/10/12 07:31:00;;;;;;;0.45;0.45;;;16.30;92.70;;;;;;5038243;28;20041;-81
2022/10/12 07:33:39;;;;;;;2.10;0.82;;;16.40;92.70;;;;;;5038060;28;20097;-81
2022/10/12 07:39:36;;;;;;;0.28;0.28;;;16.60;92.50;;;;;;5037955;28;20020;-81
2022/10/12 07:42:12;;;;;;;0.50;0.50;;;16.70;91.70;;;;;;5037867;28;20096;-80
2022/10/12 07:44:47;;;;;;;1.45;0.75;;;16.80;92.50;;;;;;5037651;28;20083;-80
2022/10/12 07:47:15;;;;;;;0.20;0.20;;;16.90;91.60;;;;;;5036780;28;20440;-81
2022/10/12 07:49:50;;;;;;;0.43;0.43;;;16.90;91.30;;;;;;5052962;28;20021;-81
2022/10/12 07:52:27;;;;;;;0.35;0.35;;;17.00;91.70;;;;;;5020125;28;20060;-80
2022/10/12 07:55:02;;;;;;;1.50;0.88;;;17.00;92.00;;;;;;5052969;28;20068;-80
2022/10/12 07:57:27;;;;;;;0.20;0.20;;;17.10;90.20;;;;;;5036643;28;20030;-81
2022/10/12 08:00:12;;;;;;;0.45;0.40;;;17.10;91.20;;;;;;5020136;28;20307;-81
2022/10/12 08:02:47;;;;;;;1.73;1.35;;;17.30;90.20;;;;;;5019417;28;20033;-81
2022/10/12 08:05:22;;;;;;;0.47;0.43;;;17.40;91.40;;;;;;5037160;28;20116;-80
2022/10/12 08:07:50;;;;;;;2.58;0.93;;;17.60;92.00;;;;;;5052832;28;20030;-79
2022/10/12 08:10:33;;;;;;;0.88;0.82;;;17.80;89.10;;;;;;5019901;28;20029;-81
2022/10/12 08:13:08;;;;;;;0.30;0.30;;;18.20;89.30;;;;;;5019742;28;20405;-81
2022/10/12 08:19:05;;;;;;;0.80;0.65;;;18.60;88.30;;;;;;5029007;28;20076;-81
2022/10/12 08:21:43;;;;;;;1.05;0.95;;;18.50;87.10;;;;;;5036070;28;20075;-80
2022/10/12 08:27:31;;;;;;;0.93;0.70;;;18.80;87.80;;;;;;5037365;28;20029;-80
2022/10/12 08:30:06;;;;;;;0.60;0.55;;;19.40;84.00;;;;;;5019723;28;20022;-80
2022/10/12 08:32:41;;;;;;;0.73;0.52;;;19.70;84.30;;;;;;5036977;28;20333;-79
2022/10/12 08:35:15;;;;;;;0.40;0.30;;;19.70;84.30;;;;;;5036929;28;20022;-79
2022/10/12 08:37:41;;;;;;;2.03;0.63;;;19.90;84.40;;;;;;5036136;28;20411;-79
2022/10/12 08:44:16;;;;;;;0.85;0.73;;;21.10;79.90;;;;;;5035058;28;20068;-78
2022/10/12 08:47:14;;;;;;;1.85;1.15;;;21.90;79.70;;;;;;5005092;28;20030;-79
2022/10/12 08:49:49;;;;;;;1.13;0.98;;;22.10;76.10;;;;;;5034841;28;20025;-78
2022/10/12 08:52:43;;;;;;;0.93;0.82;;;22.50;76.50;;;;;;5034919;28;20025;-79
2022/10/12 08:55:22;;;;;;;0.85;0.68;;;22.70;75.70;;;;;;5018143;28;20030;-81
2022/10/12 08:57:48;;;;;;;0.70;0.40;;;22.60;75.70;;;;;;5018150;28;20021;-80
2022/10/12 09:00:28;;;;;;;3.22;1.35;;;22.30;77.00;;;;;;5018460;28;20337;-80
2022/10/12 09:14:22;;;;;;;0.88;0.82;;;22.30;75.80;;;;;;4995502;28;20032;-79
2022/10/12 09:16:50;;;;;;;1.77;0.73;;;22.90;76.70;;;;;;4978436;28;20043;-80
2022/10/12 09:22:38;;;;;;;0.65;0.35;;;23.40;74.20;;;;;;4979893;28;20030;-80
2022/10/12 09:25:30;;;;;;;0.43;0.40;;;23.70;73.10;;;;;;4979634;28;20034;-80
2022/10/12 09:28:26;;;;;;;1.20;0.70;;;23.80;72.60;;;;;;4992042;28;20033;-79
2022/10/12 09:31:15;;;;;;;0.82;0.40;;;23.90;71.80;;;;;;5040259;28;20009;-78
2022/10/12 09:37:04;;;;;;;0.70;0.47;;;24.20;71.90;;;;;;5040487;28;20021;-80
2022/10/12 09:39:39;;;;;;;0.40;0.20;;;24.40;71.30;;;;;;5022524;28;20021;-79
2022/10/12 09:42:15;;;;;;;0.70;0.50;;;24.80;70.10;;;;;;5022495;28;20035;-79
2022/10/12 09:48:13;;;;;;;0.90;0.68;;;25.30;68.30;;;;;;5040066;28;20027;-80
2022/10/12 09:50:50;;;;;;;0.88;0.60;;;25.20;68.40;;;;;;5022469;28;20313;-79
2022/10/12 09:53:30;;;;;;;2.05;0.73;;;25.30;68.60;;;;;;5022641;28;20021;-79
2022/10/12 09:56:29;;;;;;;1.13;1.00;;;25.40;68.40;;;;;;5039703;28;20030;-79
2022/10/12 09:59:43;;;;;;;3.50;0.88;;;25.20;69.20;;;;;;5039892;28;20071;-80
2022/10/12 10:02:26;;;;;;;0.60;0.30;;;25.00;69.90;;;;;;5001605;28;20422;-79
2022/10/12 10:05:51;;;;;;;1.20;0.77;;;24.80;70.50;;;;;;5005157;28;20333;-79
2022/10/12 10:08:43;;;;;;;0.80;0.65;;;24.90;70.90;;;;;;5039605;28;20025;-79
2022/10/12 10:11:32;;;;;;;0.70;0.32;;;24.90;69.90;;;;;;5039839;28;20344;-79
2022/10/12 10:14:14;;;;;;;1.15;0.68;;;25.00;70.00;;;;;;5039527;28;20027;-79
2022/10/12 10:16:48;;;;;;;0.47;0.40;;;24.90;69.20;;;;;;5039351;28;20029;-79
2022/10/12 10:19:27;;;;;;;0.93;0.65;;;24.90;70.00;;;;;;5031382;28;20354;-79
2022/10/12 10:22:13;;;;;;;0.63;0.43;;;24.80;69.80;;;;;;5038372;28;20544;-79
2022/10/12 10:28:21;;;;;;;1.35;0.77;;;24.60;70.40;;;;;;5039493;28;20029;-79
2022/10/12 10:31:21;;;;;;;3.60;1.20;;;24.60;71.80;;;;;;5021904;28;20309;-78
2022/10/12 10:37:17;;;;;;;0.50;0.40;;;24.50;72.40;;;;;;5039212;28;20090;-79
2022/10/12 10:39:56;;;;;;;0.50;0.40;;;24.50;72.30;;;;;;5039123;28;20025;-79
2022/10/12 10:42:33;;;;;;;0.80;0.43;;;24.70;72.30;;;;;;5039039;28;20048;-79
2022/10/12 10:45:28;;;;;;;0.82;0.63;;;24.70;72.70;;;;;;5037829;28;20021;-78
2022/10/12 10:48:00;;;;;;;1.70;0.65;;;24.80;74.80;;;;;;5021247;28;20382;-78
2022/10/12 10:50:49;;;;;;;0.93;0.25;;;24.90;69.60;;;;;;5038957;28;20017;-78
2022/10/12 10:53:45;;;;;;;1.08;0.63;;;25.20;71.00;;;;;;5038875;28;20418;-79
2022/10/12 10:56:16;;;;;;;;;;;25.10;70.70;;;;;;5039044;28;20056;-78
2022/10/12 10:58:55;;;;;;;2.25;1.30;;;24.80;69.60;;;;;;5038691;28;19927;-79
2022/10/12 11:02:17;;;;;;;0.70;0.40;;;24.90;71.30;;;;;;5038749;28;20025;-77
2022/10/12 11:08:15;;;;;;;1.00;0.70;;;24.30;70.40;;;;;;5019057;28;20041;-80
2022/10/12 11:11:25;;;;;;;1.35;0.70;;;24.40;72.60;;;;;;5034159;28;20034;-79
2022/10/12 11:17:55;;;;;;;1.27;0.88;;;24.50;71.20;;;;;;4997434;28;20114;-80
2022/10/12 11:20:55;;;;;;;0.55;0.50;;;24.30;69.00;;;;;;4997066;28;20323;-79
2022/10/12 11:24:14;;;;;;;0.70;0.50;;;24.10;72.20;;;;;;4964399;28;20061;-79
2022/10/12 11:26:48;;;;;;;0.50;0.30;;;24.10;71.40;;;;;;4958019;29;20133;-80
2022/10/12 11:29:23;;;;;;;1.15;0.90;;;23.70;70.60;;;;;;4979537;28;20319;-80
2022/10/12 11:32:32;;;;;;;0.68;0.47;;;23.40;71.00;;;;;;4996874;28;20334;-80
2022/10/12 11:35:14;;;;;;;1.02;0.70;;;23.50;70.50;;;;;;4996769;28;20030;-80
2022/10/12 11:41:54;;;;;;;0.80;0.50;;;23.10;72.90;;;;;;5018413;28;20056;-80
2022/10/12 11:44:53;;;;;;;1.13;0.90;;;22.70;74.60;;;;;;5017878;28;20101;-79
2022/10/12 11:47:31;;;;;;;1.50;0.60;;;22.70;74.00;;;;;;5018035;28;20033;-80
2022/10/12 11:50:40;;;;;;;0.75;0.70;;;22.80;73.40;;;;;;5017931;28;20018;-80
2022/10/12 11:53:37;;;;;;;1.45;1.02;;;22.60;75.50;;;;;;4980132;28;20093;-80
2022/10/12 11:59:58;;;;;;;0.85;0.70;;;22.30;75.40;;;;;;4996580;28;20310;-79
2022/10/12 12:02:39;;;;;;;1.52;0.77;;;22.00;76.80;;;;;;4979907;28;20403;-80
2022/10/12 12:06:05;;;;;;;3.30;2.08;;;21.80;75.90;;;;;;4974964;28;20064;-81
2022/10/12 12:09:30;;;;;;;0.98;0.63;;;21.70;77.50;;;;;;4999245;28;20030;-79
2022/10/12 12:12:55;;;;;;;0.73;0.52;;;21.70;74.50;;;;;;5015830;28;20112;-79
2022/10/12 12:16:10;;;;;;;1.55;1.00;;;21.60;77.80;;;;;;5015481;28;20108;-80
2022/10/12 12:19:34;;;;;;;0.75;0.50;;;21.60;77.40;;;;;;4999083;28;20318;-80
2022/10/12 12:22:59;;;;;;;0.82;0.65;;;21.90;76.40;;;;;;5015461;28;20112;-80
2022/10/12 12:26:23;;;;;;;0.70;0.40;;;21.80;76.10;;;;;;5015468;28;20037;-79
2022/10/12 12:29:50;;;;;;;1.10;0.80;;;21.70;76.00;;;;;;5028546;28;20049;-79
2022/10/12 12:33:16;;;;;;;0.73;0.55;;;21.60;76.80;;;;;;5052717;28;20352;-79
2022/10/12 12:39:36;;;;;;;0.95;0.60;;;21.70;77.80;;;;;;5037011;28;20421;-79
2022/10/12 12:42:10;;;;;;;0.63;0.50;;;21.50;76.50;;;;;;5036799;28;20033;-79
2022/10/12 12:47:58;;;;;;;1.05;0.75;;;21.30;76.00;;;;;;5036970;28;20104;-80
2022/10/12 12:50:44;;;;;;;1.52;0.90;;;21.20;77.10;;;;;;5035589;28;20045;-80
2022/10/12 12:53:23;;;;;;;1.02;0.93;;;21.20;77.70;;;;;;5069028;28;20104;-80
2022/10/12 12:57:12;;;;;;;2.67;0.88;;;21.30;80.30;;;;;;5036499;28;20053;-80
2022/10/12 13:00:14;;;;;;;1.00;0.43;;;21.40;81.50;;;;;;4975804;28;20415;-80
2022/10/12 13:03:17;;;;;;;0.40;0.35;;;21.60;77.40;;;;;;5034679;28;20112;-80
2022/10/12 13:13:21;;;;;;;1.52;1.00;;;21.60;78.20;;;;;;4995680;28;20097;-80
2022/10/12 13:19:18;;;;;;;0.80;0.70;;;21.40;76.00;;;;;;4995190;28;20113;-80
2022/10/12 13:21:55;;;;;;;0.75;0.70;;;21.30;81.40;;;;;;4978770;28;20364;-79
2022/10/12 13:27:52;;;;;;;2.08;0.80;;;21.30;78.20;;;;;;4997240;28;20028;-80
2022/10/12 13:30:53;;;;;;;0.20;0.20;;;21.20;77.30;;;;;;4999014;28;20018;-80
2022/10/12 13:34:25;;;;;;;0.43;0.35;;;21.30;81.40;;;;;;4999177;28;20311;-79
2022/10/12 13:36:58;;;;;;;1.17;0.80;;;21.30;80.60;;;;;;4994898;28;20097;-80
2022/10/12 13:39:39;;;;;;;0.77;0.57;;;21.30;78.00;;;;;;4978763;28;20045;-80
2022/10/12 13:42:26;;;;;;;1.70;1.23;;;21.10;77.20;;;;;;4978678;28;20030;-80
2022/10/12 13:45:05;;;;;;;1.38;1.08;;;21.00;78.80;;;;;;4978363;28;20410;-80
2022/10/12 13:47:42;;;;;;;0.80;0.60;;;20.80;79.20;;;;;;5000305;28;20097;-79
2022/10/12 13:50:20;;;;;;;1.10;0.82;;;20.80;77.50;;;;;;5016449;28;20097;-79
2022/10/12 13:53:13;;;;;;;0.43;0.40;;;20.50;80.50;;;;;;4999210;28;20018;-79
2022/10/12 13:59:12;;;;;;;1.08;0.60;;;20.50;80.20;;;;;;5016488;28;20045;-80
2022/10/12 14:02:01;;;;;;;0.63;0.60;;;20.50;81.60;;;;;;5002129;28;20029;-80
2022/10/12 14:12:19;;;;;;;2.25;0.40;;;20.50;81.00;;;;;;5040045;28;20998;-79
2022/10/12 14:14:54;;;;;;;0.60;0.43;;;20.50;81.00;;;;;;5039455;28;20033;-80
2022/10/12 14:17:20;;;;;;;1.27;1.05;;;20.50;81.70;;;;;;5039571;28;20036;-80
2022/10/12 14:20:45;;;;;;;0.63;0.63;;;20.40;80.00;;;;;;5046799;28;20108;-80
2022/10/12 14:23:23;;;;;;;1.25;0.93;;;20.50;81.50;;;;;;5048632;28;20116;-80
2022/10/12 14:25:58;;;;;;;1.25;0.40;;;20.50;79.70;;;;;;5038382;28;20029;-80
2022/10/12 14:28:36;;;;;;;1.15;0.85;;;20.50;81.60;;;;;;5022055;28;20043;-80
2022/10/12 14:31:11;;;;;;;1.85;0.90;;;20.40;80.00;;;;;;5038358;28;20030;-80
2022/10/12 14:33:46;;;;;;;1.30;1.08;;;20.30;82.00;;;;;;5021771;28;20014;-80
2022/10/12 14:39:46;;;;;;;1.20;0.88;;;20.00;80.10;;;;;;5039121;28;20019;-80
2022/10/12 14:42:30;;;;;;;0.88;0.80;;;19.90;82.30;;;;;;5021472;28;20417;-80
2022/10/12 14:48:22;;;;;;;0.85;0.57;;;19.90;82.90;;;;;;5039335;28;20023;-80
2022/10/12 14:50:57;;;;;;;4.57;1.05;;;19.80;82.50;;;;;;5038858;28;20105;-80
2022/10/12 14:53:31;;;;;;;1.13;0.77;;;19.70;83.20;;;;;;5038919;28;20032;-80
2022/10/12 14:59:19;;;;;;;0.98;0.60;;;19.50;85.20;;;;;;5038983;28;20117;-80
2022/10/12 15:02:28;;;;;;;0.82;0.25;;;19.30;82.50;;;;;;5038730;28;20418;-80
2022/10/12 15:05:03;;;;;;;1.27;0.82;;;19.20;83.30;;;;;;5020935;28;20026;-80
2022/10/12 15:07:31;;;;;;;0.80;0.52;;;19.20;83.70;;;;;;5038695;28;20017;-80
2022/10/12 15:10:18;;;;;;;0.50;0.43;;;19.10;83.10;;;;;;5037199;28;20045;-80
2022/10/12 15:12:53;;;;;;;0.82;0.73;;;19.00;81.40;;;;;;5019750;28;20033;-80
2022/10/12 15:15:54;;;;;;;0.52;0.52;;;19.00;81.20;;;;;;5037371;28;20398;-80
2022/10/12 15:18:28;;;;;;;0.65;0.50;;;18.90;81.50;;;;;;5031946;28;20026;-80
2022/10/12 15:21:03;;;;;;;0.93;0.90;;;18.80;81.50;;;;;;5038187;28;20030;-80
2022/10/12 15:23:38;;;;;;;1.95;1.02;;;18.70;80.60;;;;;;5053666;28;20279;-81
2022/10/12 15:29:38;;;;;;;0.30;0.10;;;18.50;82.20;;;;;;5038533;28;20024;-80
2022/10/12 15:32:15;;;;;;;0.17;0.17;;;18.40;82.40;;;;;;5053619;28;20309;-79
2022/10/12 15:38:04;;;;;;;0.10;0.10;;;18.40;81.40;;;;;;5038379;28;20428;-80
2022/10/12 15:40:52;;;;;;;0.45;0.43;;;18.40;82.50;;;;;;5020441;28;20053;-80
2022/10/12 15:43:27;;;;;;;0.77;0.40;;;18.40;81.80;;;;;;5020456;28;20026;-80
2022/10/12 15:46:02;;;;;;;0.25;0.20;;;18.40;80.60;;;;;;5036683;28;20029;-80
2022/10/12 15:48:38;;;;;;;0.57;0.32;;;18.40;78.90;;;;;;5020302;28;20045;-80
2022/10/12 15:51:19;;;;;;;0.40;0.20;;;18.40;79.40;;;;;;5038007;28;20271;-80
2022/10/12 15:53:54;;;;;;;0.47;0.35;;;18.30;77.60;;;;;;5037747;28;20067;-80
2022/10/12 15:56:21;;;;;;;0.10;0.10;;;18.30;80.10;;;;;;5037482;28;20021;-80
2022/10/12 16:02:25;;;;;;;1.13;0.75;;;18.10;79.80;;;;;;5037828;28;20083;-80
2022/10/12 16:08:22;;;;;;;0.15;0.10;;;17.90;82.10;;;;;;5037648;28;20111;-80
2022/10/12 16:10:58;;;;;;;0.40;0.30;;;17.70;84.40;;;;;;5052914;28;20020;-80
2022/10/12 16:16:45;;;;;;;1.85;1.15;;;17.50;84.80;;;;;;5037609;28;20072;-79
2022/10/12 16:19:20;;;;;;;0.22;0.20;;;17.40;83.90;;;;;;5036217;28;20033;-80
2022/10/12 16:21:55;;;;;;;1.67;0.63;;;17.30;84.10;;;;;;5036269;28;20021;-80
2022/10/12 16:24:30;;;;;;;0.30;0.30;;;17.20;85.20;;;;;;5035486;28;20033;-80
2022/10/12 16:26:56;;;;;;;0.28;0.28;;;17.10;86.40;;;;;;5036271;28;20028;-81
2022/10/12 16:29:31;;;;;;;0.17;0.17;;;16.90;87.10;;;;;;5037033;28;20341;-79
2022/10/12 16:32:05;;;;;;;0.38;0.28;;;16.70;87.10;;;;;;5036170;28;20026;-80
2022/10/12 16:34:40;;;;;;;1.08;0.88;;;16.50;87.30;;;;;;5035852;28;20428;-80
2022/10/12 16:37:06;;;;;;;0.90;0.70;;;16.30;86.90;;;;;;5052414;28;20032;-81
2022/10/12 16:40:15;;;;;;;3.47;1.27;;;16.10;87.10;;;;;;5052415;28;20409;-80
2022/10/12 16:42:52;;;;;;;0.20;0.15;;;16.00;87.60;;;;;;5036607;28;20021;-80
2022/10/12 16:48:39;;;;;;;0.50;0.47;;;15.70;87.50;;;;;;5037155;28;20290;-80
2022/10/12 16:54:27;;;;;;;0.30;0.30;;;15.40;88.60;;;;;;5036976;28;20097;-80
2022/10/12 16:56:54;;;;;;;0.95;0.63;;;15.20;89.50;;;;;;5052287;28;20029;-80
2022/10/12 16:59:29;;;;;;;0.43;0.28;;;15.20;89.20;;;;;;5002644;28;20057;-80
2022/10/12 17:02:04;;;;;;;0.40;0.40;;;15.20;89.40;;;;;;5019122;28;20056;-81
2022/10/12 17:07:51;;;;;;;0.20;0.17;;;15.10;90.50;;;;;;5036455;28;20259;-80
2022/10/12 17:10:40;;;;;;;0.22;0.10;;;15.10;89.90;;;;;;5051908;28;20026;-80
2022/10/12 17:13:15;;;;;;;0.30;0.20;;;15.20;88.90;;;;;;5019027;28;20483;-80
2022/10/12 17:19:03;;;;;;;0.28;0.20;;;15.30;88.40;;;;;;5028313;28;20102;-81
2022/10/12 17:21:48;;;;;;;0.30;0.30;;;15.40;88.40;;;;;;5035109;28;20382;-80
2022/10/12 17:27:36;;;;;;;0.50;0.43;;;15.40;88.10;;;;;;5036809;28;20028;-80
2022/10/12 17:30:11;;;;;;;1.15;0.75;;;15.30;89.00;;;;;;5051842;28;20045;-81
2022/10/12 17:32:46;;;;;;;1.43;0.83;;;15.20;89.00;;;;;;5051764;28;20068;-80
2022/10/12 17:35:21;;;;;;;2.42;0.52;;;15.00;89.70;;;;;;5053094;28;20463;-80
2022/10/12 17:37:47;;;;;;;0.22;0.22;;;14.90;90.10;;;;;;5040445;28;20410;-80
2022/10/12 17:40:22;;;;;;;0.93;0.60;;;14.90;90.20;;;;;;5039122;28;20021;-81